createdAt,value
2019-01-21T00:00:51.041Z,152.60
2019-01-21T00:03:18.459Z,153.00
2019-01-21T00:05:45.814Z,141.10
2019-01-21T00:08:13.201Z,146.23
2019-01-21T00:10:40.599Z,136.70
2019-01-21T00:13:07.968Z,157.97
2019-01-21T00:15:35.503Z,144.90
2019-01-21T00:18:03.144Z,128.20
2019-01-21T00:20:30.530Z,126.47
2019-01-21T00:23:17.392Z,127.30
2019-01-21T00:25:44.786Z,132.00
2019-01-21T00:28:12.248Z,129.37
2019-01-21T00:30:39.657Z,134.83
2019-01-21T00:33:07.120Z,117.77
2019-01-21T00:35:34.536Z,127.77
2019-01-21T00:38:01.950Z,136.87
2019-01-21T00:40:29.365Z,118.67
2019-01-21T00:42:56.738Z,115.90
2019-01-21T00:45:24.137Z,120.30
2019-01-21T00:47:51.564Z,117.33
2019-01-21T00:50:18.925Z,125.40
2019-01-21T00:52:46.312Z,131.27
2019-01-21T00:55:13.721Z,126.23
2019-01-21T00:57:41.593Z,129.50
2019-01-21T01:00:13.158Z,129.67
2019-01-21T01:02:40.621Z,135.27
2019-01-21T01:05:09.272Z,131.30
2019-01-21T01:07:37.076Z,136.50
2019-01-21T01:10:05.213Z,147.27
2019-01-21T01:12:32.590Z,130.77
2019-01-21T01:15:00.005Z,138.87
2019-01-21T01:17:27.352Z,127.90
2019-01-21T01:19:54.765Z,140.50
2019-01-21T01:22:22.198Z,126.97
2019-01-21T01:24:49.584Z,140.13
2019-01-21T01:27:16.949Z,119.83
2019-01-21T01:29:43.789Z,134.03
2019-01-21T01:32:10.598Z,131.37
2019-01-21T01:34:37.507Z,111.07
2019-01-21T01:37:04.573Z,127.77
2019-01-21T01:39:31.477Z,119.97
2019-01-21T01:41:58.279Z,131.03
2019-01-21T01:44:25.720Z,127.57
2019-01-21T01:46:52.623Z,115.20
2019-01-21T01:49:19.658Z,119.07
2019-01-21T01:51:46.723Z,122.33
2019-01-21T01:54:13.705Z,118.37
2019-01-21T01:56:40.706Z,102.90
2019-01-21T01:59:08.049Z,114.47
2019-01-21T02:01:34.853Z,127.47
2019-01-21T02:04:01.652Z,119.93
2019-01-21T02:06:28.729Z,116.50
2019-01-21T02:08:55.628Z,118.70
2019-01-21T02:11:22.546Z,125.57
2019-01-21T02:13:49.398Z,113.43
2019-01-21T02:16:16.313Z,121.00
2019-01-21T02:18:43.197Z,115.83
2019-01-21T02:21:10.229Z,108.30
2019-01-21T02:23:37.587Z,109.73
2019-01-21T02:26:15.857Z,110.20
2019-01-21T02:28:53.210Z,122.80
2019-01-21T02:32:07.281Z,101.77
2019-01-21T02:35:17.899Z,102.93
2019-01-21T02:38:22.949Z,106.73
2019-01-21T02:40:59.099Z,99.10
2019-01-21T02:43:44.411Z,98.43
2019-01-21T02:46:35.446Z,106.90
2019-01-21T02:50:02.483Z,101.07
2019-01-21T02:53:17.613Z,103.10
2019-01-21T02:56:41.150Z,111.30
2019-01-21T02:59:19.879Z,94.47
2019-01-21T03:02:22.689Z,96.63
2019-01-21T03:05:34.134Z,90.77
2019-01-21T03:08:46.339Z,101.83
2019-01-21T03:11:43.056Z,101.63
2019-01-21T03:14:52.255Z,116.40
2019-01-21T03:18:16.455Z,105.00
2019-01-21T03:21:27.583Z,102.27
2019-01-21T03:24:13.981Z,106.83
2019-01-21T03:27:04.896Z,98.93
2019-01-21T03:30:22.008Z,97.27
2019-01-21T03:33:26.567Z,84.37
2019-01-21T03:36:04.989Z,95.53
2019-01-21T03:39:14.302Z,87.97
2019-01-21T03:41:58.230Z,88.97
2019-01-21T03:45:11.271Z,94.97
2019-01-21T03:47:44.332Z,81.70
2019-01-21T03:50:49.435Z,87.30
2019-01-21T03:53:52.523Z,90.30
2019-01-21T03:56:29.742Z,94.27
2019-01-21T03:59:26.515Z,86.97
2019-01-21T04:02:19.526Z,72.93
2019-01-21T04:05:07.741Z,82.63
2019-01-21T04:07:50.566Z,84.97
2019-01-21T04:10:45.084Z,73.63
2019-01-21T04:13:46.594Z,72.33
2019-01-21T04:16:30.402Z,75.93
2019-01-21T04:19:15.276Z,68.23
2019-01-21T04:22:15.872Z,72.90
2019-01-21T04:25:07.422Z,62.73
2019-01-21T04:27:56.445Z,62.07
2019-01-21T04:31:23.607Z,63.83
2019-01-21T04:34:31.638Z,78.47
2019-01-21T04:37:35.814Z,71.73
2019-01-21T04:40:22.245Z,63.03
2019-01-21T04:43:27.078Z,63.70
2019-01-21T04:46:31.825Z,64.17
2019-01-21T04:49:19.420Z,70.50
2019-01-21T04:52:00.995Z,56.67
2019-01-21T04:55:05.038Z,59.73
2019-01-21T04:58:35.034Z,58.37
2019-01-21T05:01:45.366Z,50.03
2019-01-21T05:04:53.323Z,45.50
2019-01-21T05:07:59.014Z,44.33
2019-01-21T05:11:00.671Z,44.13
2019-01-21T05:14:02.270Z,42.70
2019-01-21T05:16:58.119Z,43.43
2019-01-21T05:19:51.792Z,40.87
2019-01-21T05:22:37.480Z,43.13
2019-01-21T05:25:51.798Z,49.10
2019-01-21T05:28:53.083Z,45.40
2019-01-21T05:32:11.191Z,38.83
2019-01-21T05:35:13.369Z,43.33
2019-01-21T05:38:34.269Z,38.27
2019-01-21T05:41:20.308Z,36.53
2019-01-21T05:44:20.997Z,39.47
2019-01-21T05:47:31.394Z,41.60
2019-01-21T05:50:43.552Z,32.83
2019-01-21T05:53:48.530Z,32.50
2019-01-21T05:56:54.761Z,34.37
2019-01-21T06:00:12.161Z,34.40
2019-01-21T06:03:20.336Z,33.03
2019-01-21T06:06:23.834Z,39.63
2019-01-21T06:09:20.610Z,36.73
2019-01-21T06:12:13.637Z,35.47
2019-01-21T06:15:19.889Z,34.77
2019-01-21T06:17:59.947Z,35.23
2019-01-21T06:21:10.613Z,37.90
2019-01-21T06:24:04.758Z,38.20
2019-01-21T06:27:04.787Z,31.53
2019-01-21T06:30:00.783Z,35.03
2019-01-21T06:33:09.623Z,36.57
2019-01-21T06:36:07.105Z,33.87
2019-01-21T06:39:06.040Z,34.93
2019-01-21T06:41:48.725Z,33.43
2019-01-21T06:45:06.619Z,29.77
2019-01-21T06:48:09.795Z,32.47
2019-01-21T06:51:01.849Z,25.93
2019-01-21T06:53:47.917Z,28.07
2019-01-21T06:56:38.471Z,27.53
2019-01-21T06:59:47.168Z,30.93
2019-01-21T07:02:52.689Z,28.23
2019-01-21T07:05:44.992Z,28.53
2019-01-21T07:08:28.325Z,32.77
2019-01-21T07:12:04.498Z,33.73
2019-01-21T07:15:11.187Z,35.87
2019-01-21T07:18:21.116Z,35.87
2019-01-21T07:21:16.249Z,39.80
2019-01-21T07:24:03.936Z,38.67
2019-01-21T07:27:03.577Z,41.97
2019-01-21T07:30:18.417Z,40.40
2019-01-21T07:33:20.052Z,33.97
2019-01-21T07:36:44.413Z,33.83
2019-01-21T07:39:34.290Z,28.33
2019-01-21T07:42:28.289Z,26.03
2019-01-21T07:45:08.597Z,21.00
2019-01-21T07:48:08.552Z,20.87
2019-01-21T07:51:06.670Z,21.50
2019-01-21T07:54:08.371Z,18.80
2019-01-21T07:57:19.275Z,20.07
2019-01-21T08:00:25.373Z,20.27
2019-01-21T08:03:29.560Z,18.10
2019-01-21T08:06:30.215Z,19.97
2019-01-21T08:09:20.314Z,24.27
2019-01-21T08:12:24.241Z,18.53
2019-01-21T08:15:17.049Z,18.63
2019-01-21T08:18:18.253Z,18.70
2019-01-21T08:21:17.588Z,23.50
2019-01-21T08:24:12.538Z,25.80
2019-01-21T08:27:16.096Z,28.53
2019-01-21T08:30:25.105Z,28.07
2019-01-21T08:33:17.394Z,31.17
2019-01-21T08:36:20.630Z,33.77
2019-01-21T08:39:19.956Z,31.77
2019-01-21T08:42:03.973Z,26.80
2019-01-21T08:44:58.851Z,28.07
2019-01-21T08:48:03.247Z,23.70
2019-01-21T08:51:07.816Z,27.73
2019-01-21T08:53:59.594Z,30.33
2019-01-21T08:56:56.976Z,26.87
2019-01-21T09:00:07.965Z,29.87
2019-01-21T09:03:14.516Z,32.30
2019-01-21T09:06:12.709Z,33.90
2019-01-21T09:09:07.307Z,37.17
2019-01-21T09:12:16.507Z,30.00
2019-01-21T09:15:04.973Z,38.37
2019-01-21T09:18:26.030Z,39.90
2019-01-21T09:21:37.285Z,40.03
2019-01-21T09:24:36.653Z,39.97
2019-01-21T09:27:38.974Z,36.70
2019-01-21T09:30:30.227Z,48.10
2019-01-21T09:33:25.690Z,44.90
2019-01-21T09:36:34.606Z,53.43
2019-01-21T09:39:42.674Z,53.10
2019-01-21T09:42:31.996Z,51.50
2019-01-21T09:45:08.004Z,55.77
2019-01-21T09:47:34.090Z,62.33
2019-01-21T09:50:01.517Z,62.23
2019-01-21T09:52:28.884Z,69.70
2019-01-21T09:54:57.090Z,64.37
2019-01-21T09:57:27.147Z,68.03
2019-01-21T09:59:57.484Z,66.67
2019-01-21T10:02:47.463Z,79.37
2019-01-21T10:05:16.054Z,63.70
2019-01-21T10:08:04.763Z,66.53
2019-01-21T10:11:09.751Z,79.40
2019-01-21T10:14:14.691Z,64.53
2019-01-21T10:17:35.854Z,72.77
2019-01-21T10:20:46.327Z,75.17
2019-01-21T10:23:46.441Z,70.90
2019-01-21T10:27:04.147Z,85.27
2019-01-21T10:30:03.367Z,73.03
2019-01-21T10:33:02.649Z,72.47
2019-01-21T10:36:09.074Z,85.80
2019-01-21T10:39:04.103Z,78.13
2019-01-21T10:42:14.649Z,76.30
2019-01-21T10:45:15.535Z,82.77
2019-01-21T10:48:06.987Z,87.43
2019-01-21T10:51:12.995Z,75.63
2019-01-21T10:54:02.281Z,77.33
2019-01-21T10:57:06.160Z,83.83
2019-01-21T11:00:09.842Z,84.77
2019-01-21T11:02:49.570Z,81.03
2019-01-21T11:05:58.517Z,83.47
2019-01-21T11:08:47.122Z,85.03
2019-01-21T11:11:36.733Z,84.33
2019-01-21T11:14:34.656Z,94.90
2019-01-21T11:17:26.734Z,88.77
2019-01-21T11:20:23.884Z,86.70
2019-01-21T11:23:02.781Z,91.17
2019-01-21T11:26:05.850Z,87.33
2019-01-21T11:29:12.051Z,83.50
2019-01-21T11:32:25.378Z,85.00
2019-01-21T11:35:12.821Z,75.67
2019-01-21T11:38:16.155Z,82.57
2019-01-21T11:41:19.518Z,75.90
2019-01-21T11:44:26.308Z,69.40
2019-01-21T11:47:38.647Z,77.47
2019-01-21T11:50:19.879Z,73.67
2019-01-21T11:53:18.512Z,77.27
2019-01-21T11:56:38.573Z,77.13
2019-01-21T11:59:44.798Z,66.30
2019-01-21T12:02:47.542Z,78.27
2019-01-21T12:05:29.786Z,75.40
2019-01-21T12:08:33.527Z,73.00
2019-01-21T12:11:34.785Z,69.00
2019-01-21T12:15:01.920Z,77.07
2019-01-21T12:18:04.228Z,83.60
2019-01-21T12:21:09.677Z,81.00
2019-01-21T12:23:45.550Z,80.27
2019-01-21T12:26:52.995Z,80.10
2019-01-21T12:29:45.044Z,90.13
2019-01-21T12:32:56.882Z,85.63
2019-01-21T12:35:34.412Z,99.77
2019-01-21T12:38:38.725Z,102.30
2019-01-21T12:41:36.283Z,94.83
2019-01-21T12:44:16.786Z,101.43
2019-01-21T12:46:48.783Z,97.40
2019-01-21T12:49:39.641Z,100.40
2019-01-21T12:52:30.698Z,103.03
2019-01-21T12:55:38.929Z,114.27
2019-01-21T12:58:25.281Z,94.93
2019-01-21T13:01:30.038Z,108.27
2019-01-21T13:04:54.169Z,115.77
2019-01-21T13:07:40.905Z,115.97
2019-01-21T13:10:45.260Z,99.07
2019-01-21T13:13:51.778Z,114.17
2019-01-21T13:16:59.590Z,113.73
2019-01-21T13:20:17.682Z,101.17
2019-01-21T13:23:25.866Z,97.17
2019-01-21T13:26:23.009Z,102.27
2019-01-21T13:29:10.877Z,115.67
2019-01-21T13:32:47.234Z,103.23
2019-01-21T13:35:48.599Z,115.63
2019-01-21T13:39:09.456Z,112.97
2019-01-21T13:42:19.678Z,112.60
2019-01-21T13:45:30.791Z,114.37
2019-01-21T13:48:49.202Z,127.50
2019-01-21T13:51:49.810Z,128.93
2019-01-21T13:55:14.159Z,133.87
2019-01-21T13:58:08.138Z,130.33
2019-01-21T14:00:59.409Z,127.60
2019-01-21T14:03:41.677Z,138.30
2019-01-21T14:06:35.378Z,139.23
2019-01-21T14:09:40.372Z,133.37
2019-01-21T14:12:55.021Z,135.00
2019-01-21T14:16:11.889Z,118.03
2019-01-21T14:19:19.361Z,126.33
2019-01-21T14:22:23.060Z,114.93
2019-01-21T14:25:14.298Z,120.57
2019-01-21T14:28:22.046Z,101.70
2019-01-21T14:31:36.391Z,99.53
2019-01-21T14:34:15.081Z,100.23
2019-01-21T14:37:05.918Z,93.70
2019-01-21T14:40:20.774Z,100.73
2019-01-21T14:43:32.523Z,88.87
2019-01-21T14:46:19.605Z,84.77
2019-01-21T14:49:31.618Z,77.43
2019-01-21T14:52:16.733Z,81.57
2019-01-21T14:55:20.579Z,73.13
2019-01-21T14:58:15.854Z,74.43
2019-01-21T15:00:54.715Z,76.23
2019-01-21T15:04:09.891Z,65.67
2019-01-21T15:07:17.785Z,63.00
2019-01-21T15:10:09.200Z,72.63
2019-01-21T15:13:20.297Z,72.63
2019-01-21T15:16:20.567Z,58.87
2019-01-21T15:19:02.680Z,73.40
2019-01-21T15:22:06.611Z,76.53
2019-01-21T15:24:57.146Z,80.07
2019-01-21T15:27:51.318Z,74.33
2019-01-21T15:31:08.466Z,88.27
2019-01-21T15:34:07.417Z,89.53
2019-01-21T15:37:08.563Z,98.13
2019-01-21T15:39:50.686Z,89.00
2019-01-21T15:42:51.706Z,100.30
2019-01-21T15:45:50.764Z,116.47
2019-01-21T15:48:48.950Z,119.90
2019-01-21T15:51:48.871Z,116.00
2019-01-21T15:54:39.381Z,126.00
2019-01-21T15:57:28.868Z,135.37
2019-01-21T16:00:26.660Z,127.17
2019-01-21T16:03:34.409Z,147.80
2019-01-21T16:06:35.223Z,126.53
2019-01-21T16:09:22.938Z,114.43
2019-01-21T16:12:33.631Z,151.50
2019-01-21T16:15:15.069Z,132.33
2019-01-21T16:18:06.110Z,126.30
2019-01-21T16:21:04.826Z,139.97
2019-01-21T16:23:49.769Z,128.40
2019-01-21T16:26:27.724Z,140.57
2019-01-21T16:29:17.222Z,140.50
2019-01-21T16:31:50.066Z,161.17
2019-01-21T16:34:42.101Z,149.67
2019-01-21T16:37:49.786Z,160.83
2019-01-21T16:40:57.179Z,167.73
2019-01-21T16:43:30.203Z,164.87
2019-01-21T16:45:57.230Z,179.63
2019-01-21T16:48:24.186Z,174.87
2019-01-21T16:50:51.974Z,160.23
2019-01-21T16:53:19.447Z,150.50
2019-01-21T16:55:46.594Z,176.70
2019-01-21T16:58:13.435Z,132.90
2019-01-21T17:00:40.333Z,159.70
2019-01-21T17:03:07.271Z,149.10
2019-01-21T17:05:34.180Z,150.53
2019-01-21T17:08:01.220Z,149.07
2019-01-21T17:10:28.253Z,180.90
2019-01-21T17:12:55.256Z,189.17
2019-01-21T17:15:22.096Z,164.10
2019-01-21T17:17:49.038Z,168.73
2019-01-21T17:20:18.081Z,153.73
2019-01-21T17:22:45.880Z,165.67
2019-01-21T17:25:13.018Z,161.43
2019-01-21T17:27:40.030Z,154.83
2019-01-21T17:30:09.149Z,172.43
2019-01-21T17:32:35.974Z,158.27
2019-01-21T17:35:03.521Z,158.77
2019-01-21T17:37:30.354Z,159.03
2019-01-21T17:39:57.302Z,174.60
2019-01-21T17:42:24.098Z,152.83
2019-01-21T17:44:51.010Z,163.80
2019-01-21T17:47:18.149Z,159.43
2019-01-21T17:49:44.937Z,183.90
2019-01-21T17:52:12.137Z,168.93
2019-01-21T17:54:38.985Z,156.80
2019-01-21T17:57:05.903Z,165.80
2019-01-21T17:59:32.728Z,185.37
2019-01-21T18:01:59.735Z,190.17
2019-01-21T18:04:26.629Z,185.37
2019-01-21T18:06:53.530Z,193.07
2019-01-21T18:09:40.078Z,207.03
2019-01-21T18:12:06.902Z,143.20
2019-01-21T18:14:34.159Z,152.13
2019-01-21T18:17:01.102Z,175.13
2019-01-21T18:19:29.395Z,165.30
2019-01-21T18:21:56.309Z,177.83
2019-01-21T18:24:23.147Z,199.30
2019-01-21T18:26:50.278Z,215.80
2019-01-21T18:29:17.170Z,205.63
2019-01-21T18:31:44.131Z,240.37
2019-01-21T18:34:11.006Z,220.50
2019-01-21T18:36:38.015Z,243.80
2019-01-21T18:39:10.142Z,191.40
2019-01-21T18:41:37.074Z,192.80
2019-01-21T18:44:04.109Z,167.67
2019-01-21T18:46:30.932Z,195.63
2019-01-21T18:48:57.838Z,153.93
2019-01-21T18:51:24.767Z,167.30
2019-01-21T18:53:51.832Z,171.67
2019-01-21T18:56:18.807Z,145.20
2019-01-21T18:58:45.609Z,173.50
2019-01-21T19:01:12.562Z,183.77
2019-01-21T19:03:39.482Z,167.80
2019-01-21T19:06:06.600Z,195.43
2019-01-21T19:08:33.430Z,160.27
2019-01-21T19:11:00.222Z,166.90
2019-01-21T19:13:27.032Z,159.90
2019-01-21T19:15:53.974Z,168.50
2019-01-21T19:18:20.781Z,178.90
2019-01-21T19:20:47.591Z,200.43
2019-01-21T19:23:14.470Z,183.53
2019-01-21T19:25:41.461Z,179.00
2019-01-21T19:28:08.368Z,148.80
2019-01-21T19:30:35.398Z,178.30
2019-01-21T19:33:02.197Z,182.47
2019-01-21T19:35:34.494Z,156.50
2019-01-21T19:38:01.552Z,197.63
2019-01-21T19:40:28.677Z,137.17
2019-01-21T19:43:08.679Z,127.23
2019-01-21T19:45:35.486Z,111.50
2019-01-21T19:48:02.481Z,109.67
2019-01-21T19:50:29.404Z,125.97
2019-01-21T19:52:56.341Z,102.27
2019-01-21T19:55:29.549Z,105.93
2019-01-21T19:57:56.531Z,117.37
2019-01-21T20:00:24.029Z,98.80
2019-01-21T20:02:51.061Z,105.47
2019-01-21T20:05:18.561Z,103.87
2019-01-21T20:07:45.480Z,117.30
2019-01-21T20:10:15.538Z,100.77
2019-01-21T20:12:42.481Z,97.13
2019-01-21T20:15:10.683Z,94.47
2019-01-21T20:17:37.685Z,115.53
2019-01-21T20:20:07.105Z,114.10
2019-01-21T20:22:33.918Z,117.33
2019-01-21T20:25:00.825Z,103.90
2019-01-21T20:27:27.675Z,100.70
2019-01-21T20:29:54.586Z,97.97
2019-01-21T20:32:21.521Z,98.80
2019-01-21T20:34:48.369Z,114.03
2019-01-21T20:37:15.282Z,93.60
2019-01-21T20:39:42.192Z,89.57
2019-01-21T20:42:09.130Z,104.67
2019-01-21T20:44:37.930Z,83.07
2019-01-21T20:47:04.831Z,88.83
2019-01-21T20:49:31.746Z,83.10
2019-01-21T20:51:58.561Z,95.67
2019-01-21T20:54:25.363Z,82.17
2019-01-21T20:56:52.506Z,83.63
2019-01-21T20:59:19.403Z,95.67
2019-01-21T21:01:46.212Z,92.00
2019-01-21T21:04:13.378Z,97.07
2019-01-21T21:06:40.772Z,104.13
2019-01-21T21:09:08.494Z,90.53
2019-01-21T21:11:35.930Z,103.30
2019-01-21T21:14:03.485Z,85.70
2019-01-21T21:16:32.554Z,85.27
2019-01-21T21:18:59.975Z,86.57
2019-01-21T21:21:27.245Z,94.93
2019-01-21T21:23:54.533Z,81.37
2019-01-21T21:26:21.910Z,88.60
2019-01-21T21:28:49.318Z,92.90
2019-01-21T21:31:16.564Z,82.40
2019-01-21T21:33:43.882Z,83.97
2019-01-21T21:36:11.103Z,75.53
2019-01-21T21:38:38.429Z,76.37
2019-01-21T21:41:05.698Z,79.23
2019-01-21T21:43:32.797Z,75.33
2019-01-21T21:46:00.098Z,72.63
2019-01-21T21:48:31.688Z,69.97
2019-01-21T21:50:56.214Z,67.70
2019-01-21T21:53:23.396Z,69.20
2019-01-21T21:55:50.930Z,71.63
2019-01-21T21:58:18.251Z,67.03
2019-01-21T22:00:45.560Z,59.40
2019-01-21T22:03:12.812Z,55.03
2019-01-21T22:05:40.134Z,50.03
2019-01-21T22:08:07.434Z,39.33
2019-01-21T22:10:35.058Z,35.47
2019-01-21T22:13:03.063Z,30.00
2019-01-21T22:15:30.374Z,24.37
2019-01-21T22:17:57.706Z,26.53
2019-01-21T22:20:25.025Z,17.33
2019-01-21T22:22:52.324Z,19.73
2019-01-21T22:25:20.281Z,19.80
2019-01-21T22:27:47.601Z,21.13
2019-01-21T22:30:19.604Z,18.63
2019-01-21T22:32:46.593Z,16.47
2019-01-21T22:35:13.615Z,18.87
2019-01-21T22:37:40.638Z,21.30
2019-01-21T22:40:10.430Z,28.43
2019-01-21T22:42:37.325Z,27.57
2019-01-21T22:45:05.286Z,32.73
2019-01-21T22:47:32.225Z,25.13
2019-01-21T22:49:59.169Z,22.53
2019-01-21T22:52:26.289Z,27.87
2019-01-21T22:54:53.162Z,24.17
2019-01-21T22:57:19.977Z,28.43
2019-01-21T22:59:46.886Z,22.37
2019-01-21T23:02:13.829Z,18.23
2019-01-21T23:04:40.837Z,14.13
2019-01-21T23:07:07.865Z,14.93
2019-01-21T23:09:34.862Z,12.87
2019-01-21T23:12:01.982Z,14.40
2019-01-21T23:14:29.190Z,15.37
2019-01-21T23:16:56.230Z,14.67
2019-01-21T23:19:23.127Z,16.00
2019-01-21T23:21:50.044Z,19.27
2019-01-21T23:24:17.211Z,14.47
2019-01-21T23:26:44.114Z,16.40
2019-01-21T23:29:11.010Z,15.93
2019-01-21T23:31:38.038Z,18.33
2019-01-21T23:34:05.051Z,16.80
2019-01-21T23:36:32.050Z,22.37
2019-01-21T23:38:59.380Z,20.23
2019-01-21T23:41:26.174Z,20.77
2019-01-21T23:43:53.321Z,23.83
2019-01-21T23:46:20.187Z,18.27
2019-01-21T23:48:48.026Z,15.03
2019-01-21T23:51:15.169Z,14.27
2019-01-21T23:53:42.238Z,14.90
2019-01-21T23:56:09.251Z,13.87
2019-01-21T23:58:36.082Z,15.40
